Dayton, Wright-Patterson Air Force Base (KFFO)

NameWright-Patterson Air Force Base
CityDayton
CountryUnited States
ICAOKFFO
IATAFFO
Altitude251 m
CoordinatesGoogle Map
Live Air TrafficLiveATC.net
METARKFFO 170456Z AUTO 06009KT 10SM CLR M05/M08 A3000 RMK AO2 SLP173 T10461080 410191063
2019-02-17 04:56:00 Wind: Northeast (60°) 4.63 m/s - Visibility: 16093.4 m - Temperature: -5 °C - Dew point: -8 °C - Humidity: 79.7% - Pressure: 1015.92 hPa

Sorry, no flights used the airport in this database.